Time;durP1;ratioP1;P1;durP2;ratioP2;P2;SDS_P1;SDS_P2;PMS_P1;PMS_P2;Temp;Humidity;BMP_temperature;BMP_pressure;BME280_temperature;BME280_humidity;BME280_pressure;Samples;Min_cycle;Max_cycle;Signal;HPM_P1;HPM_P2
2022/02/22 00:01:19;;;;;;;;;;;;;;;;;;5093750;28;19908;-59
2022/02/22 00:03:46;;;;;;;;;;;;;;;;;;5093077;28;19923;-57
2022/02/22 00:06:12;;;;;;;;;;;;;;;;;;5074304;28;19908;-58
2022/02/22 00:08:39;;;;;;;;;;;;;;;;;;5093655;28;19956;-60
2022/02/22 00:11:05;;;;;;;;;;;;;;;;;;5088054;28;19908;-59
2022/02/22 00:13:32;;;;;;;;;;;;;;;;;;5053215;28;20363;-59
2022/02/22 00:15:59;;;;;;;;;;;;;;;;;;5052966;28;19915;-59
2022/02/22 00:18:27;;;;;;;;;;;;;;;;;;5065646;28;19921;-56
2022/02/22 00:20:54;;;;;;;;;;;;;;;;;;5073431;28;20309;-53
2022/02/22 00:23:20;;;;;;;;;;;;;;;;;;5073346;28;19922;-59
2022/02/22 00:25:47;;;;;;;;;;;;;;;;;;5073248;28;19908;-52
2022/02/22 00:28:14;;;;;;;;;;;;;;;;;;5073200;28;20327;-53
2022/02/22 00:30:40;;;;;;;;;;;;;;;;;;5073065;28;19930;-55
2022/02/22 00:33:07;;;;;;;;;;;;;;;;;;5073073;28;20302;-50
2022/02/22 00:35:33;;;;;;;;;;;;;;;;;;5073182;28;19919;-59
2022/02/22 00:37:59;;;;;;;;;;;;;;;;;;5073294;28;19985;-60
2022/02/22 00:40:26;;;;;;;;;;;;;;;;;;5073059;28;20023;-55
2022/02/22 00:42:53;;;;;;;;;;;;;;;;;;5072787;28;19912;-56
2022/02/22 00:45:19;;;;;;;;;;;;;;;;;;5072458;28;19913;-57
2022/02/22 00:47:46;;;;;;;;;;;;;;;;;;5072291;28;19912;-56
2022/02/22 00:50:12;;;;;;;;;;;;;;;;;;5072875;28;19951;-55
2022/02/22 00:52:38;;;;;;;;;;;;;;;;;;5072605;28;19909;-56
2022/02/22 00:55:05;;;;;;;;;;;;;;;;;;5073262;28;19978;-54
2022/02/22 00:57:31;;;;;;;;;;;;;;;;;;5072905;28;19909;-54
2022/02/22 00:59:58;;;;;;;;;;;;;;;;;;5072835;28;20334;-57
2022/02/22 01:02:24;;;;;;;;;;;;;;;;;;5072061;28;19995;-57
2022/02/22 01:04:51;;;;;;;;;;;;;;;;;;5072167;28;19909;-60
2022/02/22 01:07:18;;;;;;;;;;;;;;;;;;5073246;28;19908;-58
2022/02/22 01:09:44;;;;;;;;;;;;;;;;;;5072767;28;20290;-59
2022/02/22 01:12:11;;;;;;;;;;;;;;;;;;5072733;28;20388;-55
2022/02/22 01:14:37;;;;;;;;;;;;;;;;;;5072661;28;19909;-55
2022/02/22 01:17:04;;;;;;;;;;;;;;;;;;5072051;28;20366;-57
2022/02/22 01:19:30;;;;;;;;;;;;;;;;;;5075947;28;20006;-58
2022/02/22 01:21:57;;;;;;;;;;;;;;;;;;5076222;28;19931;-59
2022/02/22 01:24:23;;;;;;;;;;;;;;;;;;5075942;28;19999;-61
2022/02/22 01:26:50;;;;;;;;;;;;;;;;;;5076205;28;19915;-56
2022/02/22 01:29:16;;;;;;;;;;;;;;;;;;5076499;28;19915;-62
2022/02/22 01:31:43;;;;;;;;;;;;;;;;;;5076276;28;19919;-60
2022/02/22 01:34:09;;;;;;;;;;;;;;;;;;5076053;28;20422;-61
2022/02/22 01:36:36;;;;;;;;;;;;;;;;;;5075434;28;19909;-56
2022/02/22 01:39:02;;;;;;;;;;;;;;;;;;5075865;28;20350;-56
2022/02/22 01:41:29;;;;;;;;;;;;;;;;;;5075572;28;19912;-59
2022/02/22 01:43:55;;;;;;;;;;;;;;;;;;5075474;28;19909;-54
2022/02/22 01:46:22;;;;;;;;;;;;;;;;;;5075880;28;19908;-57
2022/02/22 01:48:48;;;;;;;;;;;;;;;;;;5075312;28;19916;-61
2022/02/22 01:51:15;;;;;;;;;;;;;;;;;;5075666;28;19924;-56
2022/02/22 01:53:41;;;;;;;;;;;;;;;;;;5075863;28;19908;-56
2022/02/22 01:56:08;;;;;;;;;;;;;;;;;;5090937;28;20277;-54
2022/02/22 01:58:34;;;;;;;;;;;;;;;;;;5075293;28;19916;-56
2022/02/22 02:01:01;;;;;;;;;;;;;;;;;;5075612;28;19962;-62
2022/02/22 02:03:28;;;;;;;;;;;;;;;;;;5076025;28;19915;-60
2022/02/22 02:05:55;;;;;;;;;;;;;;;;;;5075706;28;19909;-55
2022/02/22 02:08:23;;;;;;;;;;;;;;;;;;5075311;28;19908;-58
2022/02/22 02:10:49;;;;;;;;;;;;;;;;;;5075139;28;20371;-48
2022/02/22 02:13:16;;;;;;;;;;;;;;;;;;5075035;28;20371;-52
2022/02/22 02:15:42;;;;;;;;;;;;;;;;;;5075058;28;19959;-51
2022/02/22 02:18:09;;;;;;;;;;;;;;;;;;5075010;28;19921;-54
2022/02/22 02:20:35;;;;;;;;;;;;;;;;;;5074794;28;19923;-55
2022/02/22 02:23:02;;;;;;;;;;;;;;;;;;5074924;28;19967;-54
2022/02/22 02:25:28;;;;;;;;;;;;;;;;;;5074856;28;19931;-57
2022/02/22 02:27:54;;;;;;;;;;;;;;;;;;5075088;28;20010;-50
2022/02/22 02:30:21;;;;;;;;;;;;;;;;;;5074365;28;19930;-53
2022/02/22 02:32:47;;;;;;;;;;;;;;;;;;5074418;28;19915;-58
2022/02/22 02:35:14;;;;;;;;;;;;;;;;;;5074164;28;19916;-59
2022/02/22 02:37:40;;;;;;;;;;;;;;;;;;5074361;28;19918;-58
2022/02/22 02:40:07;;;;;;;;;;;;;;;;;;5074313;28;20011;-59
2022/02/22 02:42:33;;;;;;;;;;;;;;;;;;5073929;28;19928;-57
2022/02/22 02:45:00;;;;;;;;;;;;;;;;;;5074674;28;19908;-56
2022/02/22 02:47:26;;;;;;;;;;;;;;;;;;5074369;28;20003;-61
2022/02/22 02:49:53;;;;;;;;;;;;;;;;;;5074493;28;19916;-61
2022/02/22 02:52:19;;;;;;;;;;;;;;;;;;5074326;28;19966;-57
2022/02/22 02:54:46;;;;;;;;;;;;;;;;;;5074040;28;20366;-58
2022/02/22 02:57:14;;;;;;;;;;;;;;;;;;5074752;28;20359;-54
2022/02/22 02:59:40;;;;;;;;;;;;;;;;;;5073773;28;20233;-57
2022/02/22 03:02:07;;;;;;;;;;;;;;;;;;5073767;28;19930;-54
2022/02/22 03:04:33;;;;;;;;;;;;;;;;;;5073657;28;20265;-59
2022/02/22 03:07:00;;;;;;;;;;;;;;;;;;5073537;28;20047;-60
2022/02/22 03:09:26;;;;;;;;;;;;;;;;;;5073899;28;19909;-55
2022/02/22 03:11:53;;;;;;;;;;;;;;;;;;5073446;28;19917;-61
2022/02/22 03:14:19;;;;;;;;;;;;;;;;;;5073731;28;19909;-59
2022/02/22 03:16:46;;;;;;;;;;;;;;;;;;5073131;28;20332;-57
2022/02/22 03:19:13;;;;;;;;;;;;;;;;;;5073431;28;19978;-51
2022/02/22 03:21:40;;;;;;;;;;;;;;;;;;5073653;28;20354;-50
2022/02/22 03:24:11;;;;;;;;;;;;;;;;;;5073178;28;21564;-59
2022/02/22 03:26:37;;;;;;;;;;;;;;;;;;5073208;28;20278;-55
2022/02/22 03:29:04;;;;;;;;;;;;;;;;;;5073882;28;19963;-55
2022/02/22 03:31:30;;;;;;;;;;;;;;;;;;5073811;28;19908;-60
2022/02/22 03:33:57;;;;;;;;;;;;;;;;;;5073304;28;19904;-58
2022/02/22 03:36:25;;;;;;;;;;;;;;;;;;5072956;28;19995;-58
2022/02/22 03:38:51;;;;;;;;;;;;;;;;;;5072609;28;19983;-54
2022/02/22 03:41:18;;;;;;;;;;;;;;;;;;5072669;28;19942;-60
2022/02/22 03:43:44;;;;;;;;;;;;;;;;;;5073251;28;19908;-59
2022/02/22 03:46:11;;;;;;;;;;;;;;;;;;5072579;28;20003;-56
2022/02/22 03:48:37;;;;;;;;;;;;;;;;;;5072516;28;19995;-60
2022/02/22 03:51:05;;;;;;;;;;;;;;;;;;5072925;28;19909;-59
2022/02/22 03:53:32;;;;;;;;;;;;;;;;;;5072940;28;19908;-58
2022/02/22 03:55:58;;;;;;;;;;;;;;;;;;5073104;28;19950;-60
2022/02/22 03:58:25;;;;;;;;;;;;;;;;;;5072484;28;20416;-58
2022/02/22 04:00:52;;;;;;;;;;;;;;;;;;5072721;28;20062;-59
2022/02/22 04:03:18;;;;;;;;;;;;;;;;;;5072884;28;19908;-56
2022/02/22 04:05:46;;;;;;;;;;;;;;;;;;5073012;28;19908;-49
2022/02/22 04:08:12;;;;;;;;;;;;;;;;;;5073163;28;19912;-59
2022/02/22 04:10:39;;;;;;;;;;;;;;;;;;5073044;28;20358;-54
2022/02/22 04:13:05;;;;;;;;;;;;;;;;;;5073156;28;19927;-62
2022/02/22 04:15:32;;;;;;;;;;;;;;;;;;5073103;28;19915;-58
2022/02/22 04:17:59;;;;;;;;;;;;;;;;;;5088002;28;19924;-55
2022/02/22 04:20:26;;;;;;;;;;;;;;;;;;5072792;28;20041;-54
2022/02/22 04:22:52;;;;;;;;;;;;;;;;;;5072846;28;20388;-60
2022/02/22 04:25:19;;;;;;;;;;;;;;;;;;5073031;28;19916;-55
2022/02/22 04:27:45;;;;;;;;;;;;;;;;;;5072924;28;19920;-52
2022/02/22 04:30:12;;;;;;;;;;;;;;;;;;5073036;28;19931;-57
2022/02/22 04:32:38;;;;;;;;;;;;;;;;;;5072261;28;19912;-57
2022/02/22 04:35:05;;;;;;;;;;;;;;;;;;5072656;28;19909;-55
2022/02/22 04:37:31;;;;;;;;;;;;;;;;;;5072529;28;19998;-57
2022/02/22 04:39:58;;;;;;;;;;;;;;;;;;5072501;28;19916;-56
2022/02/22 04:42:25;;;;;;;;;;;;;;;;;;5072584;28;20371;-60
2022/02/22 04:44:51;;;;;;;;;;;;;;;;;;5073228;28;19912;-58
2022/02/22 04:47:18;;;;;;;;;;;;;;;;;;5072353;28;19955;-54
2022/02/22 04:49:44;;;;;;;;;;;;;;;;;;5072792;28;19915;-54
2022/02/22 04:52:11;;;;;;;;;;;;;;;;;;5072693;28;19913;-57
2022/02/22 04:54:37;;;;;;;;;;;;;;;;;;5091854;28;19909;-58
2022/02/22 04:57:04;;;;;;;;;;;;;;;;;;5076391;28;20266;-61
2022/02/22 04:59:30;;;;;;;;;;;;;;;;;;5076389;28;19924;-57
2022/02/22 05:01:57;;;;;;;;;;;;;;;;;;5091528;28;20007;-59
2022/02/22 05:04:23;;;;;;;;;;;;;;;;;;5076392;28;19947;-47
2022/02/22 05:06:50;;;;;;;;;;;;;;;;;;5075808;28;19920;-58
2022/02/22 05:09:16;;;;;;;;;;;;;;;;;;5076020;28;19951;-56
2022/02/22 05:11:43;;;;;;;;;;;;;;;;;;5076113;28;19919;-60
2022/02/22 05:14:09;;;;;;;;;;;;;;;;;;5076575;28;19904;-56
2022/02/22 05:16:36;;;;;;;;;;;;;;;;;;5075566;28;19974;-58
2022/02/22 05:19:03;;;;;;;;;;;;;;;;;;5075955;28;19924;-52
2022/02/22 05:21:29;;;;;;;;;;;;;;;;;;5076142;28;20334;-61
2022/02/22 05:23:57;;;;;;;;;;;;;;;;;;5076024;28;20303;-56
2022/02/22 05:26:23;;;;;;;;;;;;;;;;;;5075878;28;19912;-55
2022/02/22 05:28:50;;;;;;;;;;;;;;;;;;5075644;28;19915;-55
2022/02/22 05:31:16;;;;;;;;;;;;;;;;;;5075535;28;19908;-59
2022/02/22 05:33:43;;;;;;;;;;;;;;;;;;5075627;28;20370;-51
2022/02/22 05:36:09;;;;;;;;;;;;;;;;;;5075880;28;20289;-59
2022/02/22 05:38:36;;;;;;;;;;;;;;;;;;5075137;28;20397;-51
2022/02/22 05:41:02;;;;;;;;;;;;;;;;;;5075583;28;19920;-58
2022/02/22 05:43:29;;;;;;;;;;;;;;;;;;5075526;28;20358;-51
2022/02/22 05:45:55;;;;;;;;;;;;;;;;;;5075521;28;20239;-49
2022/02/22 05:48:22;;;;;;;;;;;;;;;;;;5075274;28;20381;-56
2022/02/22 05:50:48;;;;;;;;;;;;;;;;;;5075328;28;20190;-56
2022/02/22 05:53:15;;;;;;;;;;;;;;;;;;5074971;28;19915;-55
2022/02/22 05:55:41;;;;;;;;;;;;;;;;;;5075394;28;19908;-56
2022/02/22 05:58:08;;;;;;;;;;;;;;;;;;5074790;28;19913;-57
2022/02/22 06:00:34;;;;;;;;;;;;;;;;;;5074888;28;19920;-49
2022/02/22 06:03:01;;;;;;;;;;;;;;;;;;5075442;28;19908;-51
2022/02/22 06:05:27;;;;;;;;;;;;;;;;;;5074098;28;20004;-53
2022/02/22 06:07:54;;;;;;;;;;;;;;;;;;5074673;28;19974;-53
2022/02/22 06:10:20;;;;;;;;;;;;;;;;;;5075313;28;19951;-55
2022/02/22 06:12:48;;;;;;;;;;;;;;;;;;5114084;27;19960;-53
2022/02/22 06:15:14;;;;;;;;;;;;;;;;;;5115106;28;19914;-55
2022/02/22 06:17:41;;;;;;;;;;;;;;;;;;5115333;28;19920;-56
2022/02/22 06:20:08;;;;;;;;;;;;;;;;;;5115668;28;19916;-60
2022/02/22 06:22:34;;;;;;;;;;;;;;;;;;5115668;28;19908;-61
2022/02/22 06:25:01;;;;;;;;;;;;;;;;;;5116012;28;20278;-58
2022/02/22 06:27:28;;;;;;;;;;;;;;;;;;5115456;27;19908;-52
2022/02/22 06:29:54;;;;;;;;;;;;;;;;;;5115809;28;19907;-58
2022/02/22 06:32:21;;;;;;;;;;;;;;;;;;5115876;28;19961;-60
2022/02/22 06:34:47;;;;;;;;;;;;;;;;;;5114500;28;19908;-60
2022/02/22 06:37:13;;;;;;;;;;;;;;;;;;5115359;28;19998;-56
2022/02/22 06:39:40;;;;;;;;;;;;;;;;;;5116129;28;19912;-64
2022/02/22 06:42:07;;;;;;;;;;;;;;;;;;5115962;28;19908;-64
2022/02/22 06:44:36;;;;;;;;;;;;;;;;;;5115441;28;19915;-64
2022/02/22 06:47:02;;;;;;;;;;;;;;;;;;5114945;28;19908;-54
2022/02/22 06:49:29;;;;;;;;;;;;;;;;;;5113844;28;20250;-55
2022/02/22 06:51:55;;;;;;;;;;;;;;;;;;5113670;28;20315;-55
2022/02/22 06:54:22;;;;;;;;;;;;;;;;;;5115061;28;19993;-62
2022/02/22 06:56:49;;;;;;;;;;;;;;;;;;5115033;28;19997;-53
2022/02/22 06:59:15;;;;;;;;;;;;;;;;;;5115236;28;19914;-56
2022/02/22 07:01:42;;;;;;;;;;;;;;;;;;5114836;28;19907;-57
2022/02/22 07:04:08;;;;;;;;;;;;;;;;;;5114635;28;19908;-53
2022/02/22 07:06:35;;;;;;;;;;;;;;;;;;5114508;28;19999;-59
2022/02/22 07:09:01;;;;;;;;;;;;;;;;;;5114885;28;19908;-52
2022/02/22 07:11:30;;;;;;;;;;;;;;;;;;5113582;28;19964;-61
2022/02/22 07:13:56;;;;;;;;;;;;;;;;;;5115244;28;19968;-61
2022/02/22 07:16:27;;;;;;;;;;;;;;;;;;5114739;27;20320;-57
2022/02/22 07:18:53;;;;;;;;;;;;;;;;;;5114734;28;19924;-56
2022/02/22 07:21:20;;;;;;;;;;;;;;;;;;5114352;28;20037;-57
2022/02/22 07:23:46;;;;;;;;;;;;;;;;;;5115182;28;19908;-52
2022/02/22 07:26:13;;;;;;;;;;;;;;;;;;5114923;28;20369;-63
2022/02/22 07:28:39;;;;;;;;;;;;;;;;;;5114661;28;19908;-58
2022/02/22 07:31:09;;;;;;;;;;;;;;;;;;5114572;28;19966;-61
2022/02/22 07:33:38;;;;;;;;;;;;;;;;;;5113582;28;19907;-62
2022/02/22 07:36:04;;;;;;;;;;;;;;;;;;5115088;28;19908;-59
2022/02/22 07:38:34;;;;;;;;;;;;;;;;;;5113427;28;20060;-60
2022/02/22 07:41:00;;;;;;;;;;;;;;;;;;5114554;28;19963;-54
2022/02/22 07:43:27;;;;;;;;;;;;;;;;;;5114578;28;20388;-61
2022/02/22 07:45:53;;;;;;;;;;;;;;;;;;5114297;28;19911;-60
2022/02/22 07:48:20;;;;;;;;;;;;;;;;;;5114442;28;20003;-55
2022/02/22 07:50:46;;;;;;;;;;;;;;;;;;5113855;28;19914;-58
2022/02/22 07:53:13;;;;;;;;;;;;;;;;;;5113870;28;19912;-63
2022/02/22 07:55:39;;;;;;;;;;;;;;;;;;5100497;28;20166;-48
2022/02/22 07:58:06;;;;;;;;;;;;;;;;;;5090712;28;20002;-60
2022/02/22 08:00:32;;;;;;;;;;;;;;;;;;5090117;28;20363;-53
2022/02/22 08:02:59;;;;;;;;;;;;;;;;;;5090094;28;19927;-55
2022/02/22 08:05:25;;;;;;;;;;;;;;;;;;5090547;28;19912;-59
2022/02/22 08:07:52;;;;;;;;;;;;;;;;;;5090953;28;19908;-60
2022/02/22 08:10:18;;;;;;;;;;;;;;;;;;5089751;28;19970;-53
2022/02/22 08:12:46;;;;;;;;;;;;;;;;;;5087440;28;19999;-58
2022/02/22 08:15:12;;;;;;;;;;;;;;;;;;5090710;28;20327;-59
2022/02/22 08:17:39;;;;;;;;;;;;;;;;;;5089807;28;19912;-51
2022/02/22 08:20:06;;;;;;;;;;;;;;;;;;5090176;28;19924;-59
2022/02/22 08:22:33;;;;;;;;;;;;;;;;;;5088456;28;20011;-55
2022/02/22 08:24:59;;;;;;;;;;;;;;;;;;5090708;28;20374;-59
2022/02/22 08:27:26;;;;;;;;;;;;;;;;;;5091789;28;20077;-60
2022/02/22 08:29:52;;;;;;;;;;;;;;;;;;5097610;28;19915;-50
2022/02/22 08:32:19;;;;;;;;;;;;;;;;;;5094104;28;19960;-51
2022/02/22 08:34:45;;;;;;;;;;;;;;;;;;5096739;28;20357;-52
2022/02/22 08:37:12;;;;;;;;;;;;;;;;;;5096482;28;19908;-52
2022/02/22 08:39:39;;;;;;;;;;;;;;;;;;5097245;28;20362;-55
2022/02/22 08:42:09;;;;;;;;;;;;;;;;;;5094201;28;20408;-51
2022/02/22 08:44:36;;;;;;;;;;;;;;;;;;5093851;28;19919;-49
2022/02/22 08:47:05;;;;;;;;;;;;;;;;;;5096210;28;20007;-51
2022/02/22 08:49:33;;;;;;;;;;;;;;;;;;5095983;28;19908;-55
2022/02/22 08:52:00;;;;;;;;;;;;;;;;;;5092251;28;19948;-48
2022/02/22 08:54:26;;;;;;;;;;;;;;;;;;5094239;28;20471;-50
2022/02/22 08:56:53;;;;;;;;;;;;;;;;;;5096858;28;20524;-53
2022/02/22 08:59:19;;;;;;;;;;;;;;;;;;5093361;28;20318;-54
2022/02/22 09:01:46;;;;;;;;;;;;;;;;;;5090963;28;19923;-58
2022/02/22 09:04:12;;;;;;;;;;;;;;;;;;5096727;28;19916;-55
2022/02/22 09:06:39;;;;;;;;;;;;;;;;;;5094213;28;19917;-54
2022/02/22 09:09:05;;;;;;;;;;;;;;;;;;5094352;28;19916;-56
2022/02/22 09:11:32;;;;;;;;;;;;;;;;;;5092625;28;19912;-60
2022/02/22 09:13:58;;;;;;;;;;;;;;;;;;5093931;28;20279;-57
2022/02/22 09:16:25;;;;;;;;;;;;;;;;;;5096568;28;19908;-53
2022/02/22 09:18:53;;;;;;;;;;;;;;;;;;5094589;28;20338;-58
2022/02/22 09:21:22;;;;;;;;;;;;;;;;;;5084520;28;19924;-61
2022/02/22 09:23:49;;;;;;;;;;;;;;;;;;5088270;28;19909;-57
2022/02/22 09:26:15;;;;;;;;;;;;;;;;;;5094175;28;19915;-60
2022/02/22 09:28:45;;;;;;;;;;;;;;;;;;5085828;28;19908;-54
2022/02/22 09:31:11;;;;;;;;;;;;;;;;;;5086779;28;21017;-59
2022/02/22 09:33:38;;;;;;;;;;;;;;;;;;5094158;28;19908;-59
2022/02/22 09:36:04;;;;;;;;;;;;;;;;;;5089085;28;19912;-56
2022/02/22 09:38:31;;;;;;;;;;;;;;;;;;5085458;28;21195;-53
2022/02/22 09:40:58;;;;;;;;;;;;;;;;;;5070570;28;20363;-56
2022/02/22 09:43:24;;;;;;;;;;;;;;;;;;5077104;28;19912;-55
2022/02/22 09:45:51;;;;;;;;;;;;;;;;;;5084285;28;20326;-47
2022/02/22 09:48:17;;;;;;;;;;;;;;;;;;5080807;28;19916;-60
2022/02/22 09:50:44;;;;;;;;;;;;;;;;;;5087807;28;19908;-62
2022/02/22 09:53:10;;;;;;;;;;;;;;;;;;5083174;28;20287;-56
2022/02/22 09:55:37;;;;;;;;;;;;;;;;;;5070675;28;19908;-53
2022/02/22 09:58:03;;;;;;;;;;;;;;;;;;5084975;28;20283;-55
2022/02/22 10:00:33;;;;;;;;;;;;;;;;;;5086265;28;19922;-59
2022/02/22 10:02:59;;;;;;;;;;;;;;;;;;5072663;28;19909;-54
2022/02/22 10:05:26;;;;;;;;;;;;;;;;;;5076577;28;19912;-50
2022/02/22 10:07:52;;;;;;;;;;;;;;;;;;5081912;28;19955;-54
2022/02/22 10:10:20;;;;;;;;;;;;;;;;;;5088624;28;19923;-55
2022/02/22 10:12:46;;;;;;;;;;;;;;;;;;5080575;28;19946;-54
2022/02/22 10:15:13;;;;;;;;;;;;;;;;;;5085138;28;19912;-53
2022/02/22 10:17:42;;;;;;;;;;;;;;;;;;5085115;28;19955;-54
2022/02/22 10:20:09;;;;;;;;;;;;;;;;;;5082171;28;20057;-52
2022/02/22 10:22:35;;;;;;;;;;;;;;;;;;5084958;28;20370;-52
2022/02/22 10:25:05;;;;;;;;;;;;;;;;;;5086973;28;19915;-50
2022/02/22 10:27:39;;;;;;;;;;;;;;;;;;5086500;28;19998;-59
2022/02/22 10:30:08;;;;;;;;;;;;;;;;;;5086001;28;19909;-52
2022/02/22 10:32:38;;;;;;;;;;;;;;;;;;5064294;28;19912;-44
2022/02/22 10:35:05;;;;;;;;;;;;;;;;;;5086954;28;19908;-50
2022/02/22 10:37:32;;;;;;;;;;;;;;;;;;5082989;28;19989;-55
2022/02/22 10:39:59;;;;;;;;;;;;;;;;;;5086965;28;20007;-51
2022/02/22 10:42:25;;;;;;;;;;;;;;;;;;5064812;28;19974;-57
2022/02/22 10:44:51;;;;;;;;;;;;;;;;;;5085259;28;19915;-55
2022/02/22 10:47:18;;;;;;;;;;;;;;;;;;5083524;28;19936;-52
2022/02/22 10:49:45;;;;;;;;;;;;;;;;;;5086636;28;19962;-48
2022/02/22 10:52:11;;;;;;;;;;;;;;;;;;5079812;28;20301;-57
2022/02/22 10:54:41;;;;;;;;;;;;;;;;;;5079915;28;19908;-49
2022/02/22 10:57:09;;;;;;;;;;;;;;;;;;5083093;28;19951;-47
2022/02/22 10:59:35;;;;;;;;;;;;;;;;;;5077006;28;19920;-55
2022/02/22 11:02:05;;;;;;;;;;;;;;;;;;5069659;28;20003;-56
2022/02/22 11:04:33;;;;;;;;;;;;;;;;;;5088259;28;19908;-49
2022/02/22 11:07:00;;;;;;;;;;;;;;;;;;5089444;28;20004;-61
2022/02/22 11:09:26;;;;;;;;;;;;;;;;;;5083130;28;19983;-52
2022/02/22 11:11:53;;;;;;;;;;;;;;;;;;5080663;28;19917;-56
2022/02/22 11:14:19;;;;;;;;;;;;;;;;;;5088692;28;20004;-56
2022/02/22 11:16:46;;;;;;;;;;;;;;;;;;5084644;28;19950;-50
2022/02/22 11:19:12;;;;;;;;;;;;;;;;;;5085521;28;19920;-53
2022/02/22 11:21:39;;;;;;;;;;;;;;;;;;5082581;28;19920;-51
2022/02/22 11:24:05;;;;;;;;;;;;;;;;;;5084268;28;20017;-54
2022/02/22 11:26:32;;;;;;;;;;;;;;;;;;5087320;28;20374;-56
2022/02/22 11:28:58;;;;;;;;;;;;;;;;;;5084497;28;20025;-56
2022/02/22 11:31:25;;;;;;;;;;;;;;;;;;5083677;28;20007;-56
2022/02/22 11:33:54;;;;;;;;;;;;;;;;;;5070107;28;19987;-59
2022/02/22 11:36:21;;;;;;;;;;;;;;;;;;5085733;28;19915;-49
2022/02/22 11:38:47;;;;;;;;;;;;;;;;;;5085592;28;19962;-53
2022/02/22 11:41:14;;;;;;;;;;;;;;;;;;5090725;28;20007;-60
2022/02/22 11:43:40;;;;;;;;;;;;;;;;;;5073716;28;20237;-58
2022/02/22 11:46:07;;;;;;;;;;;;;;;;;;5073158;28;19908;-59
2022/02/22 11:48:33;;;;;;;;;;;;;;;;;;5073460;28;19940;-62
2022/02/22 11:51:00;;;;;;;;;;;;;;;;;;5073369;28;19908;-58
2022/02/22 11:53:26;;;;;;;;;;;;;;;;;;5073582;28;20402;-60
2022/02/22 11:55:53;;;;;;;;;;;;;;;;;;5073286;28;19909;-50
2022/02/22 11:58:25;;;;;;;;;;;;;;;;;;5072885;28;19996;-60
2022/02/22 12:00:54;;;;;;;;;;;;;;;;;;5055086;28;20020;-61
2022/02/22 12:03:22;;;;;;;;;;;;;;;;;;5072360;28;19908;-54
2022/02/22 12:05:48;;;;;;;;;;;;;;;;;;5073498;28;19916;-60
2022/02/22 12:08:15;;;;;;;;;;;;;;;;;;5072527;28;19995;-56
2022/02/22 12:10:41;;;;;;;;;;;;;;;;;;5072809;28;19908;-59
2022/02/22 12:13:08;;;;;;;;;;;;;;;;;;5072927;28;19915;-55
2022/02/22 12:15:35;;;;;;;;;;;;;;;;;;5073936;28;20267;-52
2022/02/22 12:18:01;;;;;;;;;;;;;;;;;;5077577;28;19912;-60
2022/02/22 12:20:28;;;;;;;;;;;;;;;;;;5093267;28;19927;-59
2022/02/22 12:22:54;;;;;;;;;;;;;;;;;;5093428;28;19908;-61
2022/02/22 12:25:21;;;;;;;;;;;;;;;;;;5093809;28;19908;-57
2022/02/22 12:27:47;;;;;;;;;;;;;;;;;;5092999;28;19995;-58
2022/02/22 12:30:14;;;;;;;;;;;;;;;;;;5093269;28;19923;-48
2022/02/22 12:32:40;;;;;;;;;;;;;;;;;;5093131;28;19914;-50
2022/02/22 12:35:07;;;;;;;;;;;;;;;;;;5093327;28;19982;-53
2022/02/22 12:37:34;;;;;;;;;;;;;;;;;;5093223;28;19931;-45
2022/02/22 12:40:00;;;;;;;;;;;;;;;;;;5093440;28;20014;-51
2022/02/22 12:42:27;;;;;;;;;;;;;;;;;;5093202;28;19919;-50
2022/02/22 12:44:53;;;;;;;;;;;;;;;;;;5091784;28;19960;-54
2022/02/22 12:47:20;;;;;;;;;;;;;;;;;;5091882;28;19908;-56
2022/02/22 12:49:46;;;;;;;;;;;;;;;;;;5085523;28;19935;-60
2022/02/22 12:52:15;;;;;;;;;;;;;;;;;;5091316;28;20662;-63
2022/02/22 12:54:42;;;;;;;;;;;;;;;;;;5089958;28;20278;-57
2022/02/22 12:57:08;;;;;;;;;;;;;;;;;;5092554;28;19908;-54
2022/02/22 12:59:35;;;;;;;;;;;;;;;;;;5088370;28;20399;-52
2022/02/22 13:02:02;;;;;;;;;;;;;;;;;;5090386;28;19945;-58
2022/02/22 13:04:28;;;;;;;;;;;;;;;;;;5090411;28;20274;-54
2022/02/22 13:06:55;;;;;;;;;;;;;;;;;;5089974;28;19908;-55
2022/02/22 13:09:26;;;;;;;;;;;;;;;;;;5087298;28;19923;-53
2022/02/22 13:11:53;;;;;;;;;;;;;;;;;;5090348;28;20032;-51
2022/02/22 13:14:21;;;;;;;;;;;;;;;;;;5092362;28;19908;-50
2022/02/22 13:16:48;;;;;;;;;;;;;;;;;;5092644;28;19999;-49
2022/02/22 13:19:15;;;;;;;;;;;;;;;;;;5096045;28;19920;-63
2022/02/22 13:21:45;;;;;;;;;;;;;;;;;;5076729;28;19924;-58
2022/02/22 13:24:11;;;;;;;;;;;;;;;;;;5088404;28;19915;-50
2022/02/22 13:26:38;;;;;;;;;;;;;;;;;;5084462;28;19913;-55
2022/02/22 13:29:06;;;;;;;;;;;;;;;;;;5082801;28;19954;-53
2022/02/22 13:31:33;;;;;;;;;;;;;;;;;;5076852;28;19936;-47
2022/02/22 13:34:00;;;;;;;;;;;;;;;;;;5086884;28;19919;-44
2022/02/22 13:36:26;;;;;;;;;;;;;;;;;;5088734;28;19908;-48
2022/02/22 13:38:53;;;;;;;;;;;;;;;;;;5087927;28;19965;-57
2022/02/22 13:41:19;;;;;;;;;;;;;;;;;;5083974;28;19958;-51
2022/02/22 13:43:46;;;;;;;;;;;;;;;;;;5087433;28;19924;-47
2022/02/22 13:46:12;;;;;;;;;;;;;;;;;;5091206;28;19909;-48
2022/02/22 13:48:39;;;;;;;;;;;;;;;;;;5083595;28;20330;-52
2022/02/22 13:51:05;;;;;;;;;;;;;;;;;;5084975;28;19912;-49
2022/02/22 13:53:32;;;;;;;;;;;;;;;;;;5083196;28;19909;-51
2022/02/22 13:55:58;;;;;;;;;;;;;;;;;;5087247;28;19908;-45
2022/02/22 13:58:25;;;;;;;;;;;;;;;;;;5088738;28;20263;-54
2022/02/22 14:00:51;;;;;;;;;;;;;;;;;;5087297;28;19922;-51
2022/02/22 14:03:18;;;;;;;;;;;;;;;;;;5084239;28;19908;-51
2022/02/22 14:05:44;;;;;;;;;;;;;;;;;;5068731;28;19915;-60
2022/02/22 14:08:14;;;;;;;;;;;;;;;;;;5085772;28;19909;-48
2022/02/22 14:10:41;;;;;;;;;;;;;;;;;;5089919;28;20286;-59
2022/02/22 14:13:07;;;;;;;;;;;;;;;;;;5084652;28;20265;-49
2022/02/22 14:15:34;;;;;;;;;;;;;;;;;;5069162;28;19998;-52
2022/02/22 14:18:02;;;;;;;;;;;;;;;;;;5086557;28;19985;-55
2022/02/22 14:20:30;;;;;;;;;;;;;;;;;;5072577;28;20363;-53
2022/02/22 14:22:57;;;;;;;;;;;;;;;;;;5082459;28;20371;-45
2022/02/22 14:25:26;;;;;;;;;;;;;;;;;;5086371;28;19917;-57
2022/02/22 14:27:53;;;;;;;;;;;;;;;;;;5087925;28;19908;-49
2022/02/22 14:30:19;;;;;;;;;;;;;;;;;;5086006;28;20292;-54
2022/02/22 14:32:46;;;;;;;;;;;;;;;;;;5081909;28;19908;-50
2022/02/22 14:35:13;;;;;;;;;;;;;;;;;;5087850;28;19909;-51
2022/02/22 14:37:39;;;;;;;;;;;;;;;;;;5085998;28;19915;-53
2022/02/22 14:40:06;;;;;;;;;;;;;;;;;;5087109;28;19922;-53
2022/02/22 14:42:32;;;;;;;;;;;;;;;;;;5083534;28;20274;-54
2022/02/22 14:44:59;;;;;;;;;;;;;;;;;;5085423;28;20337;-49
2022/02/22 14:47:25;;;;;;;;;;;;;;;;;;5088144;28;19916;-53
2022/02/22 14:49:52;;;;;;;;;;;;;;;;;;5090087;28;19908;-49
2022/02/22 14:52:18;;;;;;;;;;;;;;;;;;5083260;28;19974;-51
2022/02/22 14:54:45;;;;;;;;;;;;;;;;;;5083814;28;19961;-56
2022/02/22 14:57:12;;;;;;;;;;;;;;;;;;5090533;28;20278;-50
2022/02/22 14:59:39;;;;;;;;;;;;;;;;;;5084745;28;20007;-50
2022/02/22 15:02:05;;;;;;;;;;;;;;;;;;5077953;28;19908;-51
2022/02/22 15:04:32;;;;;;;;;;;;;;;;;;5089614;28;20426;-48
2022/02/22 15:06:59;;;;;;;;;;;;;;;;;;5084517;28;20041;-53
2022/02/22 15:09:25;;;;;;;;;;;;;;;;;;5085722;28;19916;-57
2022/02/22 15:11:52;;;;;;;;;;;;;;;;;;5083072;28;20282;-54
2022/02/22 15:14:18;;;;;;;;;;;;;;;;;;5084672;28;19916;-56
2022/02/22 15:16:45;;;;;;;;;;;;;;;;;;5066992;28;19908;-54
2022/02/22 15:19:11;;;;;;;;;;;;;;;;;;5088564;28;19920;-57
2022/02/22 15:21:38;;;;;;;;;;;;;;;;;;5080516;28;19924;-50
2022/02/22 15:24:04;;;;;;;;;;;;;;;;;;5094365;28;19915;-59
2022/02/22 15:26:30;;;;;;;;;;;;;;;;;;5093986;28;19962;-60
2022/02/22 15:28:57;;;;;;;;;;;;;;;;;;5094118;28;20405;-61
2022/02/22 15:31:23;;;;;;;;;;;;;;;;;;5094162;28;19912;-62
2022/02/22 15:33:50;;;;;;;;;;;;;;;;;;5094137;28;19908;-61
2022/02/22 15:36:16;;;;;;;;;;;;;;;;;;5094117;28;19908;-62
2022/02/22 15:38:43;;;;;;;;;;;;;;;;;;5094208;28;19908;-61
2022/02/22 15:41:10;;;;;;;;;;;;;;;;;;5094108;28;19916;-61
2022/02/22 15:43:36;;;;;;;;;;;;;;;;;;5093640;28;19915;-63
2022/02/22 15:46:03;;;;;;;;;;;;;;;;;;5094031;28;19904;-61
2022/02/22 15:48:29;;;;;;;;;;;;;;;;;;5094063;28;20243;-63
2022/02/22 15:50:56;;;;;;;;;;;;;;;;;;5093169;28;19912;-64
2022/02/22 15:53:23;;;;;;;;;;;;;;;;;;5093940;28;19908;-64
2022/02/22 15:55:51;;;;;;;;;;;;;;;;;;5093794;28;19915;-63
2022/02/22 15:58:17;;;;;;;;;;;;;;;;;;5093691;28;20277;-60
2022/02/22 16:00:45;;;;;;;;;;;;;;;;;;5093752;28;20383;-54
2022/02/22 16:03:12;;;;;;;;;;;;;;;;;;5093842;28;19912;-58
2022/02/22 16:05:38;;;;;;;;;;;;;;;;;;5093774;28;19912;-58
2022/02/22 16:08:05;;;;;;;;;;;;;;;;;;5093699;28;19954;-59
2022/02/22 16:10:32;;;;;;;;;;;;;;;;;;5093278;28;19915;-56
2022/02/22 16:12:58;;;;;;;;;;;;;;;;;;5093723;28;19920;-56
2022/02/22 16:15:28;;;;;;;;;;;;;;;;;;5093902;28;19911;-52
2022/02/22 16:17:54;;;;;;;;;;;;;;;;;;5093452;28;19912;-51
2022/02/22 16:20:21;;;;;;;;;;;;;;;;;;5093551;28;20274;-52
2022/02/22 16:22:49;;;;;;;;;;;;;;;;;;5093211;28;19916;-57
2022/02/22 16:25:15;;;;;;;;;;;;;;;;;;5094186;28;19908;-58
2022/02/22 16:27:43;;;;;;;;;;;;;;;;;;5093329;28;19912;-59
2022/02/22 16:30:09;;;;;;;;;;;;;;;;;;5093524;28;19908;-58
2022/02/22 16:32:36;;;;;;;;;;;;;;;;;;5093248;28;19943;-62
2022/02/22 16:35:02;;;;;;;;;;;;;;;;;;5093238;28;19954;-60
2022/02/22 16:37:29;;;;;;;;;;;;;;;;;;5093308;28;19919;-61
2022/02/22 16:39:55;;;;;;;;;;;;;;;;;;5093330;28;19951;-57
2022/02/22 16:42:22;;;;;;;;;;;;;;;;;;5093460;28;20271;-50